Time;durP1;ratioP1;P1;durP2;ratioP2;P2;SDS_P1;SDS_P2;PMS_P1;PMS_P2;Temp;Humidity;BMP_temperature;BMP_pressure;BME280_temperature;BME280_humidity;BME280_pressure;Samples;Min_cycle;Max_cycle;Signal;HPM_P1;HPM_P2
2022/06/08 00:02:07;;;;;;;13.68;10.23;;;13.10;99.90;;;;;;5072692;28;20117;-49
2022/06/08 00:04:33;;;;;;;13.65;10.30;;;13.00;99.90;;;;;;5072657;28;20123;-48
2022/06/08 00:06:58;;;;;;;14.40;11.45;;;13.00;99.90;;;;;;5072419;28;20115;-48
2022/06/08 00:09:24;;;;;;;16.45;10.82;;;13.00;99.90;;;;;;5072263;28;20037;-49
2022/06/08 00:11:50;;;;;;;15.45;10.25;;;13.00;99.90;;;;;;5072414;28;20048;-48
2022/06/08 00:14:16;;;;;;;13.13;9.95;;;13.00;99.90;;;;;;5072573;28;20530;-52
2022/06/08 00:16:42;;;;;;;13.30;9.93;;;13.00;99.90;;;;;;5072630;28;20040;-48
2022/06/08 00:19:08;;;;;;;14.88;9.88;;;13.10;99.90;;;;;;5070583;28;20052;-48
2022/06/08 00:21:35;;;;;;;14.35;9.68;;;13.10;99.90;;;;;;5072200;28;20046;-51
2022/06/08 00:24:01;;;;;;;16.98;9.98;;;13.00;99.90;;;;;;5071633;28;20049;-49
2022/06/08 00:26:27;;;;;;;12.52;9.93;;;13.00;99.90;;;;;;5071977;28;20036;-50
2022/06/08 00:28:53;;;;;;;15.88;10.48;;;13.10;99.90;;;;;;5071998;28;20483;-45
2022/06/08 00:31:20;;;;;;;14.10;10.48;;;13.10;99.90;;;;;;5072329;28;20037;-50
2022/06/08 00:33:45;;;;;;;16.42;10.95;;;13.00;99.90;;;;;;5071678;28;20158;-52
2022/06/08 00:36:11;;;;;;;15.65;10.63;;;13.10;99.90;;;;;;5072121;28;20113;-52
2022/06/08 00:38:37;;;;;;;15.27;10.32;;;13.10;99.90;;;;;;5053819;28;20059;-48
2022/06/08 00:41:24;;;;;;;15.75;11.07;;;13.20;99.90;;;;;;5072145;28;20033;-51
2022/06/08 00:43:50;;;;;;;18.02;10.65;;;13.30;99.90;;;;;;5071880;28;20040;-49
2022/06/08 00:46:16;;;;;;;15.38;10.40;;;13.30;99.90;;;;;;5072032;28;20044;-48
2022/06/08 00:48:47;;;;;;;14.57;10.20;;;13.30;99.90;;;;;;5071673;28;20090;-49
2022/06/08 00:51:13;;;;;;;14.90;9.48;;;13.30;99.90;;;;;;5053792;28;20375;-49
2022/06/08 00:53:45;;;;;;;13.60;10.20;;;13.30;99.90;;;;;;5071707;28;20052;-51
2022/06/08 00:56:17;;;;;;;15.30;9.75;;;13.30;99.90;;;;;;5071145;28;20039;-50
2022/06/08 00:58:43;;;;;;;14.18;9.88;;;13.40;99.90;;;;;;5071485;28;20058;-48
2022/06/08 01:01:10;;;;;;;13.43;9.77;;;13.30;99.90;;;;;;5071514;28;20036;-47
2022/06/08 01:03:36;;;;;;;14.93;10.02;;;13.40;99.90;;;;;;5071322;28;20036;-49
2022/06/08 01:06:06;;;;;;;14.98;10.02;;;13.50;99.90;;;;;;5071320;28;20037;-48
2022/06/08 01:08:48;;;;;;;13.48;10.73;;;13.40;99.90;;;;;;5070891;28;20055;-49
2022/06/08 01:11:40;;;;;;;15.68;10.65;;;13.40;99.90;;;;;;5071280;28;20066;-49
2022/06/08 01:14:14;;;;;;;16.10;10.57;;;13.60;99.90;;;;;;5059976;28;20075;-47
2022/06/08 01:16:50;;;;;;;15.48;10.20;;;13.40;99.90;;;;;;5071557;28;20044;-50
2022/06/08 01:19:16;;;;;;;18.52;10.43;;;13.50;99.90;;;;;;5070924;28;20055;-50
2022/06/08 01:21:41;;;;;;;16.80;10.55;;;13.40;99.90;;;;;;5071093;28;20040;-49
2022/06/08 01:24:10;;;;;;;16.98;11.45;;;13.50;99.90;;;;;;5071132;28;20048;-47
2022/06/08 01:26:55;;;;;;;13.30;10.40;;;13.50;99.90;;;;;;5070880;28;20032;-48
2022/06/08 01:29:29;;;;;;;17.23;10.77;;;13.50;99.90;;;;;;5071083;28;20033;-47
2022/06/08 01:32:08;;;;;;;16.08;11.15;;;13.50;99.90;;;;;;5071200;28;20037;-51
2022/06/08 01:34:47;;;;;;;16.65;11.00;;;13.60;99.90;;;;;;5071144;28;20040;-49
2022/06/08 01:37:22;;;;;;;14.82;10.63;;;13.40;99.90;;;;;;5071174;28;20044;-46
2022/06/08 01:40:10;;;;;;;15.70;10.48;;;13.50;99.90;;;;;;5070110;28;20082;-50
2022/06/08 01:42:38;;;;;;;15.00;10.35;;;13.50;99.90;;;;;;5070866;28;20037;-52
2022/06/08 01:45:33;;;;;;;17.15;11.15;;;13.40;99.90;;;;;;5070581;28;20148;-50
2022/06/08 01:48:05;;;;;;;17.35;11.65;;;13.50;99.90;;;;;;5071009;28;20188;-48
2022/06/08 01:50:59;;;;;;;15.35;11.93;;;13.40;99.90;;;;;;5052529;28;20174;-50
2022/06/08 01:53:47;;;;;;;14.93;10.70;;;13.40;99.90;;;;;;5061190;28;20040;-51
2022/06/08 01:56:15;;;;;;;16.63;11.40;;;13.40;99.90;;;;;;5070542;28;20075;-48
2022/06/08 01:58:52;;;;;;;16.60;11.27;;;13.50;99.90;;;;;;5070668;28;20036;-49
2022/06/08 02:01:29;;;;;;;18.63;11.00;;;13.50;99.90;;;;;;5070110;28;20547;-47
2022/06/08 02:04:38;;;;;;;14.15;11.27;;;13.50;99.90;;;;;;5070313;28;20044;-49
2022/06/08 02:07:22;;;;;;;17.35;12.32;;;13.60;99.90;;;;;;5070339;28;20116;-50
2022/06/08 02:09:52;;;;;;;19.05;12.68;;;13.50;99.90;;;;;;5052134;28;20115;-52
2022/06/08 02:12:18;;;;;;;19.90;12.48;;;13.60;99.90;;;;;;5070426;28;20036;-49
2022/06/08 02:14:50;;;;;;;19.45;12.77;;;13.50;99.90;;;;;;5070155;28;20533;-49
2022/06/08 02:17:19;;;;;;;17.70;12.85;;;13.50;99.90;;;;;;5070559;28;20032;-47
2022/06/08 02:19:51;;;;;;;19.50;12.82;;;13.50;99.90;;;;;;5070087;28;20052;-48
2022/06/08 02:22:25;;;;;;;19.33;12.80;;;13.50;99.90;;;;;;5070644;28;20059;-51
2022/06/08 02:25:16;;;;;;;18.95;13.10;;;13.50;99.90;;;;;;5070435;28;20040;-49
2022/06/08 02:27:50;;;;;;;18.75;13.35;;;13.60;99.90;;;;;;5070149;28;20118;-46
2022/06/08 02:30:19;;;;;;;20.83;13.07;;;13.60;99.90;;;;;;5070188;28;20044;-48
2022/06/08 02:35:44;;;;;;;21.80;14.02;;;13.60;99.90;;;;;;5070245;28;20392;-46
2022/06/08 02:38:14;;;;;;;19.38;14.15;;;13.50;99.90;;;;;;5070078;28;20052;-50
2022/06/08 02:40:49;;;;;;;20.23;13.50;;;13.60;99.90;;;;;;5070259;28;20426;-48
2022/06/08 02:43:23;;;;;;;24.05;14.93;;;13.60;99.90;;;;;;5070105;28;20475;-47
2022/06/08 02:45:59;;;;;;;20.17;13.27;;;13.60;99.90;;;;;;5070125;28;20041;-45
2022/06/08 02:48:24;;;;;;;19.85;13.50;;;13.60;99.90;;;;;;5069128;28;20039;-48
2022/06/08 02:50:54;;;;;;;18.90;13.57;;;13.60;99.90;;;;;;5070141;28;20033;-48
2022/06/08 02:53:20;;;;;;;22.52;14.00;;;13.60;99.90;;;;;;5051651;28;20044;-48
2022/06/08 02:56:15;;;;;;;22.75;14.55;;;13.60;99.90;;;;;;5069793;28;20201;-49
2022/06/08 02:58:52;;;;;;;22.98;14.65;;;13.50;99.90;;;;;;5070006;28;20052;-52
2022/06/08 03:01:34;;;;;;;19.35;14.57;;;13.50;99.90;;;;;;5070199;28;20048;-48
2022/06/08 03:04:06;;;;;;;23.13;15.40;;;13.50;99.90;;;;;;5069140;28;20056;-49
2022/06/08 03:06:39;;;;;;;22.67;14.90;;;13.60;99.90;;;;;;5051916;28;20047;-47
2022/06/08 03:09:09;;;;;;;20.70;15.37;;;13.50;99.90;;;;;;5050530;28;20123;-48
2022/06/08 03:11:43;;;;;;;21.08;15.40;;;13.60;99.90;;;;;;5069736;28;20267;-50
2022/06/08 03:14:12;;;;;;;21.20;14.93;;;13.60;99.90;;;;;;5071478;28;20039;-50
2022/06/08 03:16:40;;;;;;;21.30;14.80;;;13.60;99.90;;;;;;5073490;28;20085;-47
2022/06/08 03:19:08;;;;;;;27.92;16.23;;;13.60;99.90;;;;;;5073241;28;20076;-50
2022/06/08 03:21:35;;;;;;;25.80;15.13;;;13.70;99.90;;;;;;5073584;28;20537;-47
2022/06/08 03:24:02;;;;;;;24.40;16.50;;;13.70;99.90;;;;;;5073170;28;20045;-47
2022/06/08 03:26:36;;;;;;;23.70;15.65;;;13.70;99.90;;;;;;5055331;28;20159;-52
2022/06/08 03:29:01;;;;;;;;;;;13.60;99.90;;;;;;5073754;28;20368;-50
2022/06/08 03:31:27;;;;;;;26.83;17.13;;;13.60;99.90;;;;;;5073258;28;20097;-50
2022/06/08 03:33:53;;;;;;;27.73;16.98;;;13.60;99.90;;;;;;5073018;28;20039;-47
2022/06/08 03:36:18;;;;;;;24.35;16.73;;;13.70;99.90;;;;;;5073152;28;20083;-49
2022/06/08 03:38:44;;;;;;;28.15;18.90;;;13.60;99.90;;;;;;5070672;28;20043;-49
2022/06/08 03:41:10;;;;;;;24.20;17.17;;;13.70;99.90;;;;;;5072697;28;20037;-50
2022/06/08 03:43:37;;;;;;;29.45;17.08;;;13.70;99.90;;;;;;5072574;28;21768;-49
2022/06/08 03:46:06;;;;;;;27.85;18.23;;;13.60;99.90;;;;;;5072947;28;20032;-49
2022/06/08 03:48:33;;;;;;;27.17;17.50;;;13.70;99.90;;;;;;5073277;28;20051;-46
2022/06/08 03:51:00;;;;;;;27.13;18.48;;;13.60;99.90;;;;;;5071666;28;20122;-47
2022/06/08 03:53:46;;;;;;;29.95;18.33;;;13.70;99.90;;;;;;5072654;28;20051;-52
2022/06/08 03:56:16;;;;;;;29.77;18.17;;;13.50;99.90;;;;;;5072256;28;20436;-50
2022/06/08 03:58:42;;;;;;;27.02;18.13;;;13.60;99.90;;;;;;5054710;28;20044;-47
2022/06/08 04:01:09;;;;;;;26.23;17.98;;;13.60;99.90;;;;;;5072611;28;20391;-49
2022/06/08 04:03:35;;;;;;;29.42;18.90;;;13.50;99.90;;;;;;5072317;28;20084;-50
2022/06/08 04:06:00;;;;;;;32.67;18.63;;;13.60;99.90;;;;;;5054704;28;20063;-46
2022/06/08 04:08:27;;;;;;;31.73;19.35;;;13.60;99.90;;;;;;5072650;28;20043;-49
2022/06/08 04:10:52;;;;;;;29.58;19.35;;;13.60;99.90;;;;;;5054629;28;20048;-48
2022/06/08 04:13:18;;;;;;;32.60;19.77;;;13.60;99.90;;;;;;5072680;28;21285;-49
2022/06/08 04:15:44;;;;;;;37.22;20.73;;;13.60;99.90;;;;;;5054207;28;20464;-50
2022/06/08 04:18:13;;;;;;;30.17;20.45;;;13.70;99.90;;;;;;5072385;28;20059;-48
2022/06/08 04:20:41;;;;;;;33.65;21.25;;;13.80;99.90;;;;;;5071861;28;20106;-48
2022/06/08 04:23:08;;;;;;;27.98;19.02;;;13.80;99.90;;;;;;5072237;28;20131;-48
2022/06/08 04:25:36;;;;;;;29.95;18.15;;;13.70;99.90;;;;;;5071515;28;20567;-46
2022/06/08 04:28:01;;;;;;;29.50;19.85;;;13.80;99.90;;;;;;5053929;28;20036;-49
2022/06/08 04:30:27;;;;;;;28.73;19.58;;;13.90;99.90;;;;;;5072516;28;20393;-48
2022/06/08 04:32:53;;;;;;;30.48;18.85;;;13.70;99.90;;;;;;5072346;28;20068;-50
2022/06/08 04:35:19;;;;;;;28.50;18.55;;;13.70;99.90;;;;;;5072376;28;20119;-48
2022/06/08 04:37:45;;;;;;;31.95;19.20;;;13.70;99.90;;;;;;5072097;28;20040;-51
2022/06/08 04:40:14;;;;;;;30.40;19.42;;;13.80;99.90;;;;;;5054136;28;20038;-48
2022/06/08 04:42:40;;;;;;;29.77;19.05;;;13.70;99.90;;;;;;5071894;28;20122;-46
2022/06/08 04:45:08;;;;;;;28.00;19.10;;;14.00;99.90;;;;;;5071875;28;20124;-46
2022/06/08 04:47:34;;;;;;;34.13;19.55;;;13.90;99.90;;;;;;5072297;28;20474;-49
2022/06/08 04:49:59;;;;;;;27.33;18.70;;;14.10;99.90;;;;;;5071662;28;20072;-49
2022/06/08 04:52:25;;;;;;;29.67;19.08;;;14.30;99.90;;;;;;5071687;28;20025;-48
2022/06/08 04:54:51;;;;;;;27.75;17.42;;;14.40;99.90;;;;;;5071721;28;20047;-48
2022/06/08 04:57:17;;;;;;;22.83;16.63;;;14.40;99.90;;;;;;5071615;28;20043;-46
2022/06/08 04:59:44;;;;;;;24.35;17.25;;;14.30;99.90;;;;;;5071707;28;20055;-48
2022/06/08 05:02:10;;;;;;;27.17;17.42;;;14.40;99.90;;;;;;5071469;28;20060;-50
2022/06/08 05:04:37;;;;;;;26.20;16.02;;;14.60;99.90;;;;;;5071153;28;20036;-50
2022/06/08 05:07:03;;;;;;;22.77;15.10;;;14.50;99.90;;;;;;5071042;28;20036;-51
2022/06/08 05:09:29;;;;;;;27.98;16.92;;;14.50;99.90;;;;;;5053525;28;20055;-45
2022/06/08 05:11:55;;;;;;;23.55;15.98;;;14.60;99.90;;;;;;5071666;28;20036;-48
2022/06/08 05:14:20;;;;;;;22.63;15.60;;;14.60;99.90;;;;;;5071610;28;20392;-47
2022/06/08 05:16:46;;;;;;;21.95;15.27;;;14.60;99.90;;;;;;5053882;28;20040;-48
2022/06/08 05:19:12;;;;;;;25.15;16.10;;;14.60;99.90;;;;;;5070093;28;20605;-51
2022/06/08 05:21:38;;;;;;;26.33;17.30;;;14.60;99.90;;;;;;5071365;28;20574;-51
2022/06/08 05:24:04;;;;;;;27.52;16.60;;;14.60;99.90;;;;;;5036323;28;20070;-48
2022/06/08 05:26:29;;;;;;;27.95;17.85;;;14.70;99.90;;;;;;5070553;28;20044;-46
2022/06/08 05:28:55;;;;;;;26.25;17.50;;;14.70;99.90;;;;;;5071074;28;20028;-50
2022/06/08 05:31:21;;;;;;;26.25;17.73;;;14.80;99.90;;;;;;5070896;28;20437;-48
2022/06/08 05:33:47;;;;;;;24.75;17.05;;;14.80;99.90;;;;;;5071112;28;20032;-51
2022/06/08 05:36:13;;;;;;;25.30;18.38;;;14.80;99.90;;;;;;5070099;28;20083;-48
2022/06/08 05:38:38;;;;;;;26.30;18.08;;;14.80;99.90;;;;;;5053168;28;20518;-45
2022/06/08 05:41:04;;;;;;;28.52;18.38;;;14.80;99.90;;;;;;5071024;28;20060;-47
2022/06/08 05:43:30;;;;;;;30.23;19.70;;;14.90;99.90;;;;;;5071029;28;20090;-46
2022/06/08 05:45:56;;;;;;;28.95;19.65;;;14.90;99.90;;;;;;5070787;28;20472;-48
2022/06/08 05:48:21;;;;;;;27.45;19.65;;;15.20;99.90;;;;;;5070530;28;20029;-52
2022/06/08 05:50:48;;;;;;;29.55;20.63;;;15.30;99.90;;;;;;5070928;28;20082;-47
2022/06/08 05:53:15;;;;;;;32.35;21.63;;;15.20;99.90;;;;;;5070675;28;20475;-45
2022/06/08 05:55:41;;;;;;;29.00;20.60;;;15.20;99.90;;;;;;5070383;28;20043;-50
2022/06/08 05:58:07;;;;;;;30.88;20.38;;;15.30;99.90;;;;;;5070447;28;20046;-47
2022/06/08 06:00:37;;;;;;;30.50;20.25;;;15.40;99.90;;;;;;5070566;28;20036;-48
2022/06/08 06:03:02;;;;;;;29.13;20.27;;;15.40;99.90;;;;;;5070629;28;20052;-48
2022/06/08 06:05:32;;;;;;;29.42;18.63;;;15.60;99.90;;;;;;5069081;28;20036;-49
2022/06/08 06:07:58;;;;;;;28.83;18.67;;;15.50;99.90;;;;;;5070415;28;20035;-46
2022/06/08 06:10:27;;;;;;;27.83;17.83;;;15.60;99.90;;;;;;5070537;28;20392;-51
2022/06/08 06:12:54;;;;;;;23.42;16.52;;;15.70;99.90;;;;;;5070275;28;20109;-48
2022/06/08 06:15:22;;;;;;;26.13;18.02;;;15.80;99.90;;;;;;5070397;28;20056;-49
2022/06/08 06:17:48;;;;;;;26.08;18.02;;;15.70;99.90;;;;;;5069932;28;20352;-46
2022/06/08 06:20:15;;;;;;;25.60;18.30;;;15.90;99.90;;;;;;5070184;28;20056;-46
2022/06/08 06:22:41;;;;;;;27.33;17.90;;;16.10;99.90;;;;;;5070088;28;20071;-47
2022/06/08 06:25:08;;;;;;;26.33;17.52;;;16.00;99.90;;;;;;5035533;28;20091;-49
2022/06/08 06:27:35;;;;;;;24.50;17.35;;;16.10;99.90;;;;;;5069983;28;20054;-49
2022/06/08 06:30:01;;;;;;;23.30;16.73;;;16.20;99.90;;;;;;5069932;28;20056;-51
2022/06/08 06:32:30;;;;;;;26.40;16.70;;;16.10;99.90;;;;;;5070141;28;20033;-47
2022/06/08 06:34:58;;;;;;;24.23;16.52;;;16.20;99.90;;;;;;5069941;28;20036;-50
2022/06/08 06:37:25;;;;;;;24.02;16.77;;;16.30;99.90;;;;;;5068324;28;21075;-49
2022/06/08 06:39:51;;;;;;;22.13;15.77;;;16.40;99.90;;;;;;5068383;28;20460;-49
2022/06/08 06:42:23;;;;;;;21.65;14.93;;;16.40;99.90;;;;;;5070140;28;20064;-47
2022/06/08 06:44:50;;;;;;;22.55;14.60;;;16.30;99.90;;;;;;5070269;28;20116;-47
2022/06/08 06:47:15;;;;;;;21.98;15.05;;;16.40;99.90;;;;;;5070258;28;20028;-48
2022/06/08 06:49:41;;;;;;;23.77;15.65;;;16.50;99.90;;;;;;5053159;28;20472;-51
2022/06/08 06:52:10;;;;;;;21.60;14.93;;;16.60;99.90;;;;;;5072374;28;20041;-47
2022/06/08 06:54:36;;;;;;;19.92;13.73;;;16.70;99.90;;;;;;5071477;28;20046;-49
2022/06/08 06:57:02;;;;;;;21.95;14.40;;;16.80;99.90;;;;;;5072772;28;20069;-52
2022/06/08 06:59:28;;;;;;;19.88;13.93;;;16.80;99.90;;;;;;5072995;28;20080;-50
2022/06/08 07:01:54;;;;;;;20.52;13.88;;;16.90;99.90;;;;;;5072699;28;20257;-48
2022/06/08 07:04:20;;;;;;;18.55;12.50;;;17.00;99.90;;;;;;5070665;28;20141;-48
2022/06/08 07:06:45;;;;;;;17.77;12.95;;;16.90;99.90;;;;;;5072870;28;20036;-51
2022/06/08 07:09:11;;;;;;;18.45;13.32;;;16.90;99.90;;;;;;5073022;28;20120;-48
2022/06/08 07:11:40;;;;;;;20.67;12.38;;;17.00;99.90;;;;;;5072629;28;20042;-49
2022/06/08 07:14:12;;;;;;;17.67;11.93;;;17.10;99.90;;;;;;5072588;28;20051;-45
2022/06/08 07:16:38;;;;;;;16.23;11.43;;;17.20;99.90;;;;;;5069517;28;20043;-50
2022/06/08 07:19:05;;;;;;;15.20;10.57;;;17.30;99.90;;;;;;5063382;28;20049;-51
2022/06/08 07:21:32;;;;;;;16.30;9.75;;;17.40;99.90;;;;;;5066863;28;20098;-49
2022/06/08 07:23:57;;;;;;;15.10;10.15;;;17.40;99.90;;;;;;5066143;28;20033;-48
2022/06/08 07:26:28;;;;;;;17.42;10.65;;;17.50;99.90;;;;;;5071835;28;20036;-49
2022/06/08 07:28:57;;;;;;;15.95;9.60;;;17.50;99.90;;;;;;5072521;28;20033;-50
2022/06/08 07:31:23;;;;;;;16.50;9.13;;;17.70;99.90;;;;;;5072697;28;20448;-50
2022/06/08 07:33:50;;;;;;;13.90;9.52;;;17.80;99.90;;;;;;5072206;28;20036;-45
2022/06/08 07:36:17;;;;;;;14.55;9.20;;;17.80;99.90;;;;;;5070241;28;20087;-48
2022/06/08 07:38:42;;;;;;;14.82;9.13;;;17.80;99.90;;;;;;5070496;28;20040;-49
2022/06/08 07:41:08;;;;;;;15.70;10.35;;;17.80;99.90;;;;;;5072079;28;20062;-48
2022/06/08 07:43:34;;;;;;;13.43;8.88;;;17.80;99.90;;;;;;5072190;28;20043;-50
2022/06/08 07:46:00;;;;;;;13.48;9.60;;;17.90;99.90;;;;;;5069456;28;20379;-49
2022/06/08 07:51:10;;;;;;;12.57;9.05;;;18.10;99.90;;;;;;5072141;28;20110;-47
2022/06/08 07:53:36;;;;;;;12.23;8.50;;;18.30;99.90;;;;;;5069055;28;20048;-49
2022/06/08 07:56:03;;;;;;;11.52;8.38;;;18.30;99.90;;;;;;5061940;28;20037;-49
2022/06/08 07:58:29;;;;;;;10.38;7.45;;;18.50;99.90;;;;;;5066078;28;20036;-52
2022/06/08 08:00:57;;;;;;;10.75;7.53;;;18.40;99.90;;;;;;5060602;28;20051;-49
2022/06/08 08:03:25;;;;;;;15.05;9.25;;;18.40;99.90;;;;;;5065675;28;20037;-50
2022/06/08 08:05:52;;;;;;;16.20;9.52;;;18.50;99.90;;;;;;5066704;28;20036;-49
2022/06/08 08:08:19;;;;;;;13.48;8.90;;;18.70;99.90;;;;;;5047693;28;20044;-47
2022/06/08 08:10:45;;;;;;;12.48;9.32;;;18.60;99.90;;;;;;5064577;28;20109;-48
2022/06/08 08:13:12;;;;;;;12.82;9.15;;;18.50;99.90;;;;;;5065175;28;20079;-49
2022/06/08 08:15:39;;;;;;;16.17;9.80;;;18.60;99.90;;;;;;5065131;28;20047;-48
2022/06/08 08:18:05;;;;;;;12.35;8.02;;;18.80;99.90;;;;;;5065154;28;20044;-51
2022/06/08 08:20:31;;;;;;;11.30;7.78;;;18.80;99.90;;;;;;5066054;28;20057;-51
2022/06/08 08:22:58;;;;;;;12.05;7.38;;;18.80;99.90;;;;;;5064710;28;20055;-50
2022/06/08 08:25:25;;;;;;;12.77;7.25;;;19.00;99.90;;;;;;5049772;28;20044;-51
2022/06/08 08:27:51;;;;;;;11.25;6.10;;;19.00;99.90;;;;;;5064747;28;20040;-49
2022/06/08 08:30:20;;;;;;;11.40;6.15;;;19.20;99.90;;;;;;5045921;28;20044;-55
2022/06/08 08:32:46;;;;;;;11.73;6.35;;;19.30;99.90;;;;;;5065322;28;20032;-53
2022/06/08 08:35:12;;;;;;;8.20;5.32;;;19.40;99.90;;;;;;5048269;28;20059;-50
2022/06/08 08:37:38;;;;;;;9.02;5.78;;;19.30;99.90;;;;;;5062799;28;20143;-49
2022/06/08 08:40:11;;;;;;;9.93;6.55;;;19.30;99.90;;;;;;5060592;28;20041;-48
2022/06/08 08:42:37;;;;;;;13.02;6.82;;;19.40;99.90;;;;;;5061390;28;20476;-53
2022/06/08 08:45:14;;;;;;;11.50;6.10;;;19.70;99.90;;;;;;5065454;28;20048;-51
2022/06/08 08:48:09;;;;;;;9.07;5.57;;;19.60;99.90;;;;;;5062169;28;20040;-50
2022/06/08 08:50:48;;;;;;;7.47;4.90;;;19.50;99.90;;;;;;5067355;28;20039;-51
2022/06/08 08:53:29;;;;;;;8.15;4.70;;;19.80;99.90;;;;;;5071887;28;20052;-51
2022/06/08 08:56:13;;;;;;;6.47;3.72;;;19.70;99.90;;;;;;5071620;28;20047;-45
2022/06/08 08:58:43;;;;;;;6.65;4.60;;;19.70;99.90;;;;;;5071291;28;20032;-50
2022/06/08 09:01:18;;;;;;;7.25;4.90;;;19.60;99.90;;;;;;5053616;28;20115;-47
2022/06/08 09:03:49;;;;;;;6.88;5.03;;;19.80;99.90;;;;;;5052544;28;20044;-48
2022/06/08 09:06:18;;;;;;;7.32;4.80;;;20.20;99.90;;;;;;5071540;28;20050;-50
2022/06/08 09:08:48;;;;;;;6.47;4.32;;;20.10;99.90;;;;;;5071664;28;20054;-49
2022/06/08 09:11:24;;;;;;;6.82;4.35;;;20.20;99.90;;;;;;5071570;28;20440;-50
2022/06/08 09:13:53;;;;;;;8.90;4.55;;;20.30;99.90;;;;;;5053240;28;20040;-49
2022/06/08 09:16:35;;;;;;;6.85;4.20;;;20.10;99.90;;;;;;5053062;28;20040;-50
2022/06/08 09:19:21;;;;;;;6.63;3.15;;;20.10;99.90;;;;;;5049695;28;20065;-50
2022/06/08 09:21:48;;;;;;;7.00;3.15;;;20.00;99.90;;;;;;5051130;28;20075;-50
2022/06/08 09:24:41;;;;;;;6.18;3.20;;;20.00;99.90;;;;;;5051305;28;20077;-48
2022/06/08 09:27:25;;;;;;;7.10;3.47;;;20.00;99.90;;;;;;5050545;28;20036;-50
2022/06/08 09:30:10;;;;;;;;;;;20.20;99.90;;;;;;5051617;28;20041;-49
2022/06/08 09:32:44;;;;;;;7.20;3.92;;;20.20;99.90;;;;;;5049704;28;19925;-51
2022/06/08 09:35:34;;;;;;;7.47;4.25;;;20.40;99.90;;;;;;5050886;28;20049;-52
2022/06/08 09:38:12;;;;;;;7.32;4.20;;;20.40;99.90;;;;;;5051139;28;20049;-47
2022/06/08 09:41:05;;;;;;;7.88;4.10;;;20.30;99.90;;;;;;5050959;28;20617;-51
2022/06/08 09:43:46;;;;;;;7.10;4.90;;;20.20;99.90;;;;;;5050201;28;20514;-52
2022/06/08 09:52:23;;;;;;;6.55;4.57;;;19.90;99.90;;;;;;5050854;28;20438;-49
2022/06/08 09:55:27;;;;;;;9.52;5.28;;;19.80;99.90;;;;;;5051012;28;20044;-49
2022/06/08 09:58:11;;;;;;;9.52;5.30;;;19.70;99.90;;;;;;5048410;28;20062;-51
2022/06/08 10:00:59;;;;;;;10.30;5.32;;;19.80;99.90;;;;;;5050513;28;20048;-47
2022/06/08 10:03:51;;;;;;;7.82;4.90;;;19.80;99.90;;;;;;5050165;28;20045;-47
2022/06/08 10:06:30;;;;;;;8.75;5.25;;;19.80;99.90;;;;;;5050610;28;20052;-47
2022/06/08 10:09:17;;;;;;;11.18;5.82;;;19.90;99.90;;;;;;5050630;28;20036;-49
2022/06/08 10:11:47;;;;;;;8.60;5.65;;;19.90;99.90;;;;;;5050386;28;20532;-51
2022/06/08 10:14:42;;;;;;;10.02;5.90;;;20.00;99.90;;;;;;5050391;28;20057;-49
2022/06/08 10:17:30;;;;;;;8.93;5.25;;;20.10;99.90;;;;;;5050432;28;20044;-46
2022/06/08 10:20:13;;;;;;;9.68;5.47;;;20.30;99.90;;;;;;5063944;28;20110;-48
2022/06/08 10:22:52;;;;;;;8.68;4.47;;;20.30;99.90;;;;;;5070030;28;20043;-49
2022/06/08 10:25:31;;;;;;;10.15;4.53;;;20.20;99.90;;;;;;5050731;28;20040;-48
2022/06/08 10:28:02;;;;;;;12.07;5.05;;;20.20;99.90;;;;;;5070057;28;20104;-52
2022/06/08 10:30:41;;;;;;;9.13;5.07;;;20.10;99.90;;;;;;5070210;28;20048;-48
2022/06/08 10:33:12;;;;;;;8.57;5.40;;;20.10;99.90;;;;;;5070297;28;20101;-51
2022/06/08 10:35:43;;;;;;;9.85;5.82;;;20.10;99.90;;;;;;5070188;28;20473;-49
2022/06/08 10:38:23;;;;;;;11.13;6.07;;;20.10;99.90;;;;;;5070264;28;20039;-50
2022/06/08 10:41:00;;;;;;;10.00;6.18;;;20.20;99.90;;;;;;5069955;28;20037;-49
2022/06/08 10:43:34;;;;;;;9.45;5.43;;;20.30;99.90;;;;;;5070255;28;20510;-50
2022/06/08 10:46:02;;;;;;;;;;;20.40;99.90;;;;;;5070323;28;20040;-52
2022/06/08 10:48:51;;;;;;;12.60;5.57;;;20.60;99.90;;;;;;5070012;28;20010;-49
2022/06/08 10:51:17;;;;;;;7.82;4.93;;;20.70;99.90;;;;;;5068523;28;20032;-52
2022/06/08 10:56:35;;;;;;;6.55;4.75;;;21.30;99.90;;;;;;5069560;28;20186;-49
2022/06/08 10:59:04;;;;;;;8.48;5.15;;;21.20;99.90;;;;;;5070100;28;20120;-49
2022/06/08 11:01:35;;;;;;;8.80;4.32;;;21.00;99.90;;;;;;5069750;28;20053;-53
2022/06/08 11:04:02;;;;;;;6.93;4.00;;;20.70;99.90;;;;;;5069989;28;20052;-50
2022/06/08 11:06:50;;;;;;;12.32;2.90;;;20.30;99.90;;;;;;5051879;28;20047;-48
2022/06/08 11:09:34;;;;;;;9.88;2.70;;;18.90;99.90;;;;;;5053942;28;20445;-46
2022/06/08 11:12:30;;;;;;;16.60;2.63;;;18.20;99.90;;;;;;5070024;28;20048;-47
2022/06/08 11:15:15;;;;;;;10.10;1.90;;;17.70;99.90;;;;;;5069597;28;20098;-47
2022/06/08 11:17:52;;;;;;;7.00;1.90;;;17.30;99.90;;;;;;5068765;28;20103;-49
2022/06/08 11:20:20;;;;;;;9.38;2.17;;;17.10;99.90;;;;;;5069513;28;20371;-48
2022/06/08 11:23:09;;;;;;;7.03;2.42;;;17.10;99.90;;;;;;5069620;28;20040;-49
2022/06/08 11:25:58;;;;;;;9.25;2.65;;;17.20;99.90;;;;;;5069800;28;20438;-47
2022/06/08 11:28:32;;;;;;;8.32;2.70;;;17.00;99.90;;;;;;5068284;28;20036;-48
2022/06/08 11:31:05;;;;;;;7.93;3.28;;;16.90;99.90;;;;;;5069872;28;20098;-46
2022/06/08 11:33:54;;;;;;;9.63;3.40;;;17.00;99.90;;;;;;5069821;28;20115;-46
2022/06/08 11:36:41;;;;;;;10.70;4.07;;;17.10;99.90;;;;;;5059696;28;20106;-48
2022/06/08 11:39:30;;;;;;;11.52;4.80;;;17.10;99.90;;;;;;5073225;28;20090;-47
2022/06/08 11:42:15;;;;;;;10.73;5.32;;;17.10;99.90;;;;;;5073072;28;20052;-46
2022/06/08 11:45:04;;;;;;;11.20;5.05;;;17.20;99.90;;;;;;5073140;28;20042;-46
2022/06/08 11:48:13;;;;;;;12.27;6.10;;;17.10;99.90;;;;;;5055448;28;20056;-46
2022/06/08 11:50:58;;;;;;;11.75;5.88;;;17.10;99.90;;;;;;5059254;28;20040;-47
2022/06/08 11:53:39;;;;;;;13.40;5.78;;;17.10;99.90;;;;;;5073335;28;20044;-46
2022/06/08 11:56:22;;;;;;;13.18;7.57;;;17.20;99.90;;;;;;5071478;28;20033;-47
2022/06/08 11:58:51;;;;;;;15.23;7.18;;;17.50;99.90;;;;;;5072859;28;20059;-47
2022/06/08 12:01:46;;;;;;;13.85;7.68;;;17.50;99.90;;;;;;5072977;28;20032;-47
2022/06/08 12:04:16;;;;;;;13.10;8.15;;;17.50;99.90;;;;;;5054816;28;20068;-47
2022/06/08 12:06:44;;;;;;;14.02;8.05;;;17.80;99.90;;;;;;5072703;28;20029;-47
2022/06/08 12:09:31;;;;;;;12.27;7.32;;;17.70;99.90;;;;;;5038167;28;20033;-47
2022/06/08 12:12:13;;;;;;;11.65;8.10;;;18.10;99.90;;;;;;5072327;28;20032;-47
2022/06/08 12:14:40;;;;;;;14.90;8.13;;;18.10;99.90;;;;;;5072362;28;20033;-46
2022/06/08 12:17:14;;;;;;;13.15;8.55;;;18.20;99.90;;;;;;5072598;28;20046;-47
2022/06/08 12:19:42;;;;;;;9.45;6.70;;;18.40;99.90;;;;;;5072188;28;20136;-45
2022/06/08 12:22:16;;;;;;;10.93;5.97;;;18.70;99.90;;;;;;5072351;28;20051;-50
2022/06/08 12:24:42;;;;;;;10.73;4.15;;;18.70;99.90;;;;;;5072590;28;20452;-48
2022/06/08 12:27:26;;;;;;;9.73;4.40;;;18.80;99.90;;;;;;5071003;28;20094;-47
2022/06/08 12:29:58;;;;;;;10.03;4.40;;;18.70;99.90;;;;;;5072471;28;20085;-47
2022/06/08 12:32:27;;;;;;;8.27;4.25;;;18.60;99.90;;;;;;5072177;28;20271;-48
2022/06/08 12:35:16;;;;;;;7.70;4.38;;;18.70;99.90;;;;;;5072252;28;20040;-47
2022/06/08 12:37:46;;;;;;;9.15;4.10;;;18.80;99.90;;;;;;5054094;28;20068;-48
2022/06/08 12:40:17;;;;;;;9.40;4.15;;;19.00;99.90;;;;;;5071627;28;20048;-51
2022/06/08 12:43:00;;;;;;;11.65;4.35;;;19.10;99.90;;;;;;5071994;28;20036;-47
2022/06/08 12:45:35;;;;;;;14.00;3.90;;;19.20;99.90;;;;;;5053673;28;20091;-48
2022/06/08 12:48:23;;;;;;;8.48;3.95;;;19.40;99.90;;;;;;5072121;28;20032;-48
2022/06/08 12:50:51;;;;;;;11.30;4.57;;;19.40;99.90;;;;;;5071751;28;20034;-46
2022/06/08 12:53:17;;;;;;;7.32;4.22;;;19.40;99.90;;;;;;5071666;28;20210;-46
2022/06/08 12:55:43;;;;;;;12.57;4.70;;;19.40;99.90;;;;;;5071617;28;20051;-46
2022/06/08 12:58:10;;;;;;;9.75;4.28;;;19.40;99.90;;;;;;5071655;28;20025;-47
2022/06/08 13:00:37;;;;;;;12.45;4.45;;;19.50;99.90;;;;;;5070641;28;20384;-51
2022/06/08 13:03:27;;;;;;;9.55;3.97;;;19.60;99.90;;;;;;5071284;28;20075;-47
2022/06/08 13:05:55;;;;;;;9.32;3.83;;;19.70;99.90;;;;;;5071431;28;20036;-52
2022/06/08 13:08:23;;;;;;;9.20;3.85;;;19.80;99.90;;;;;;5071445;28;20115;-47
2022/06/08 13:10:51;;;;;;;8.85;3.80;;;19.60;99.90;;;;;;5071221;28;20036;-49
2022/06/08 13:13:29;;;;;;;10.25;3.50;;;19.60;99.90;;;;;;5053563;28;20044;-48